sensor_id;sensor_type;location;lat;lon;timestamp;pressure;altitude;pressure_sealevel;temperature;humidity
61742;BME280;47650;49.848;9.620;2022-11-20T00:00:55;99197.53;;;3.84;83.14
61742;BME280;47650;49.848;9.620;2022-11-20T00:03:20;99190.41;;;3.86;84.09
61742;BME280;47650;49.848;9.620;2022-11-20T00:05:46;99178.00;;;3.88;83.95
61742;BME280;47650;49.848;9.620;2022-11-20T00:08:12;99139.19;;;3.45;83.75
61742;BME280;47650;49.848;9.620;2022-11-20T00:10:39;99196.94;;;3.19;81.20
61742;BME280;47650;49.848;9.620;2022-11-20T00:13:05;99174.25;;;2.81;81.66
61742;BME280;47650;49.848;9.620;2022-11-20T00:15:30;99204.53;;;2.98;82.51
61742;BME280;47650;49.848;9.620;2022-11-20T00:17:57;99193.59;;;3.17;82.90
61742;BME280;47650;49.848;9.620;2022-11-20T00:20:24;99187.88;;;3.36;83.42
61742;BME280;47650;49.848;9.620;2022-11-20T00:22:50;99150.88;;;3.04;84.69
61742;BME280;47650;49.848;9.620;2022-11-20T00:25:17;99177.66;;;3.08;83.88
61742;BME280;47650;49.848;9.620;2022-11-20T00:27:43;99189.78;;;3.34;83.64
61742;BME280;47650;49.848;9.620;2022-11-20T00:30:08;99183.31;;;3.51;84.48
61742;BME280;47650;49.848;9.620;2022-11-20T00:32:34;99175.09;;;3.56;84.53
61742;BME280;47650;49.848;9.620;2022-11-20T00:34:59;99175.56;;;3.74;84.99
61742;BME280;47650;49.848;9.620;2022-11-20T00:37:26;99172.97;;;3.85;85.05
61742;BME280;47650;49.848;9.620;2022-11-20T00:39:51;99171.25;;;3.97;84.54
61742;BME280;47650;49.848;9.620;2022-11-20T00:42:17;99150.34;;;3.84;84.58
61742;BME280;47650;49.848;9.620;2022-11-20T00:44:43;99186.00;;;3.63;82.32
61742;BME280;47650;49.848;9.620;2022-11-20T00:47:09;99186.41;;;3.81;83.37
61742;BME280;47650;49.848;9.620;2022-11-20T00:49:36;99141.22;;;3.66;83.66
61742;BME280;47650;49.848;9.620;2022-11-20T00:52:03;99157.72;;;3.79;83.53
61742;BME280;47650;49.848;9.620;2022-11-20T00:54:28;99172.56;;;3.67;84.14
61742;BME280;47650;49.848;9.620;2022-11-20T00:56:53;99162.09;;;3.54;83.17
61742;BME280;47650;49.848;9.620;2022-11-20T00:59:19;99184.38;;;3.73;82.06
61742;BME280;47650;49.848;9.620;2022-11-20T01:01:44;99147.06;;;3.45;83.30
61742;BME280;47650;49.848;9.620;2022-11-20T01:04:10;99150.47;;;3.58;83.31
61742;BME280;47650;49.848;9.620;2022-11-20T01:06:36;99167.94;;;3.82;83.63
61742;BME280;47650;49.848;9.620;2022-11-20T01:09:13;99167.06;;;3.94;83.94
61742;BME280;47650;49.848;9.620;2022-11-20T01:11:41;99174.25;;;4.04;83.72
61742;BME280;47650;49.848;9.620;2022-11-20T01:14:10;99180.97;;;3.60;82.07
61742;BME280;47650;49.848;9.620;2022-11-20T01:16:38;99176.56;;;3.84;82.61
61742;BME280;47650;49.848;9.620;2022-11-20T01:19:08;99152.69;;;3.76;83.48
61742;BME280;47650;49.848;9.620;2022-11-20T01:21:37;99178.75;;;3.66;82.35
61742;BME280;47650;49.848;9.620;2022-11-20T01:24:03;99176.78;;;3.81;83.14
61742;BME280;47650;49.848;9.620;2022-11-20T01:26:35;99181.44;;;3.89;83.01
61742;BME280;47650;49.848;9.620;2022-11-20T01:29:03;99168.28;;;4.02;83.70
61742;BME280;47650;49.848;9.620;2022-11-20T01:31:34;99170.44;;;4.08;84.05
61742;BME280;47650;49.848;9.620;2022-11-20T01:34:06;99178.47;;;4.18;83.91
61742;BME280;47650;49.848;9.620;2022-11-20T01:36:33;99126.75;;;3.95;83.85
61742;BME280;47650;49.848;9.620;2022-11-20T01:39:00;99173.22;;;4.29;83.70
61742;BME280;47650;49.848;9.620;2022-11-20T01:41:28;99165.72;;;4.36;83.69
61742;BME280;47650;49.848;9.620;2022-11-20T01:44:19;99158.56;;;4.26;84.13
61742;BME280;47650;49.848;9.620;2022-11-20T01:46:57;99162.63;;;4.30;83.84
61742;BME280;47650;49.848;9.620;2022-11-20T01:49:33;99163.69;;;4.28;84.14
61742;BME280;47650;49.848;9.620;2022-11-20T01:52:07;99166.16;;;4.18;83.13
61742;BME280;47650;49.848;9.620;2022-11-20T01:54:44;99117.25;;;3.94;83.67
61742;BME280;47650;49.848;9.620;2022-11-20T01:57:13;99165.94;;;4.21;83.40
61742;BME280;47650;49.848;9.620;2022-11-20T01:59:45;99163.44;;;4.20;83.88
61742;BME280;47650;49.848;9.620;2022-11-20T02:02:12;99145.16;;;4.07;83.79
61742;BME280;47650;49.848;9.620;2022-11-20T02:04:38;99161.41;;;4.12;83.74
61742;BME280;47650;49.848;9.620;2022-11-20T02:07:04;99157.19;;;3.98;83.47
61742;BME280;47650;49.848;9.620;2022-11-20T02:09:31;99137.19;;;3.73;83.46
61742;BME280;47650;49.848;9.620;2022-11-20T02:11:57;99154.09;;;3.69;84.13
61742;BME280;47650;49.848;9.620;2022-11-20T02:14:24;99169.44;;;3.62;84.75
61742;BME280;47650;49.848;9.620;2022-11-20T02:16:50;99158.88;;;3.51;84.99
61742;BME280;47650;49.848;9.620;2022-11-20T02:19:23;99173.34;;;3.56;85.04
61742;BME280;47650;49.848;9.620;2022-11-20T02:22:10;99139.88;;;3.36;85.55
61742;BME280;47650;49.848;9.620;2022-11-20T02:24:40;99170.72;;;3.56;85.40
61742;BME280;47650;49.848;9.620;2022-11-20T02:27:09;99122.25;;;3.38;84.94
61742;BME280;47650;49.848;9.620;2022-11-20T02:29:53;99118.66;;;3.39;84.95
61742;BME280;47650;49.848;9.620;2022-11-20T02:34:47;99161.50;;;3.75;84.73
61742;BME280;47650;49.848;9.620;2022-11-20T02:37:13;99126.59;;;3.50;84.80
61742;BME280;47650;49.848;9.620;2022-11-20T02:39:39;99094.44;;;3.24;85.98
61742;BME280;47650;49.848;9.620;2022-11-20T02:42:05;99153.13;;;3.70;84.62
61742;BME280;47650;49.848;9.620;2022-11-20T02:44:32;99156.47;;;3.72;85.07
61742;BME280;47650;49.848;9.620;2022-11-20T02:46:58;99156.47;;;3.72;85.16
61742;BME280;47650;49.848;9.620;2022-11-20T02:49:25;99149.56;;;3.71;85.31
61742;BME280;47650;49.848;9.620;2022-11-20T02:51:50;99114.44;;;3.49;85.30
61742;BME280;47650;49.848;9.620;2022-11-20T02:54:16;99151.13;;;3.49;85.50
61742;BME280;47650;49.848;9.620;2022-11-20T02:56:42;99153.78;;;3.12;83.62
61742;BME280;47650;49.848;9.620;2022-11-20T02:59:08;99163.38;;;3.25;84.35
61742;BME280;47650;49.848;9.620;2022-11-20T03:01:34;99147.25;;;3.31;84.66
61742;BME280;47650;49.848;9.620;2022-11-20T03:04:01;99156.00;;;3.43;85.21
61742;BME280;47650;49.848;9.620;2022-11-20T03:06:30;99114.31;;;3.27;85.37
61742;BME280;47650;49.848;9.620;2022-11-20T03:08:57;99151.41;;;3.57;85.12
61742;BME280;47650;49.848;9.620;2022-11-20T03:11:23;99158.22;;;3.60;85.90
61742;BME280;47650;49.848;9.620;2022-11-20T03:13:56;99129.50;;;3.58;84.91
61742;BME280;47650;49.848;9.620;2022-11-20T03:16:23;99145.03;;;3.73;85.10
61742;BME280;47650;49.848;9.620;2022-11-20T03:18:56;99138.59;;;3.77;85.34
61742;BME280;47650;49.848;9.620;2022-11-20T03:21:22;99142.72;;;3.57;83.96
61742;BME280;47650;49.848;9.620;2022-11-20T03:23:49;99127.59;;;3.61;84.08
61742;BME280;47650;49.848;9.620;2022-11-20T03:26:20;99114.28;;;3.39;84.45
61742;BME280;47650;49.848;9.620;2022-11-20T03:28:54;99113.19;;;3.31;84.80
61742;BME280;47650;49.848;9.620;2022-11-20T03:31:23;99112.56;;;3.27;85.39
61742;BME280;47650;49.848;9.620;2022-11-20T03:33:49;99134.03;;;3.32;85.55
61742;BME280;47650;49.848;9.620;2022-11-20T03:36:16;99126.25;;;2.57;83.92
61742;BME280;47650;49.848;9.620;2022-11-20T03:38:43;99142.88;;;2.56;84.61
61742;BME280;47650;49.848;9.620;2022-11-20T03:41:13;99141.88;;;2.95;85.54
61742;BME280;47650;49.848;9.620;2022-11-20T03:43:39;99135.50;;;2.87;85.46
61742;BME280;47650;49.848;9.620;2022-11-20T03:46:05;99120.75;;;2.86;85.18
61742;BME280;47650;49.848;9.620;2022-11-20T03:48:31;99129.75;;;2.94;85.41
61742;BME280;47650;49.848;9.620;2022-11-20T03:53:37;99133.81;;;2.98;86.56
61742;BME280;47650;49.848;9.620;2022-11-20T03:56:05;99127.03;;;2.96;86.46
61742;BME280;47650;49.848;9.620;2022-11-20T03:58:33;99119.88;;;2.98;86.52
61742;BME280;47650;49.848;9.620;2022-11-20T04:01:11;99067.81;;;2.69;86.97
61742;BME280;47650;49.848;9.620;2022-11-20T04:03:38;99128.88;;;3.07;85.58
61742;BME280;47650;49.848;9.620;2022-11-20T04:06:14;99122.84;;;3.17;86.22
61742;BME280;47650;49.848;9.620;2022-11-20T04:08:40;99123.03;;;3.27;85.86
61742;BME280;47650;49.848;9.620;2022-11-20T04:13:37;99080.00;;;3.18;85.66
61742;BME280;47650;49.848;9.620;2022-11-20T04:16:03;99110.88;;;3.50;85.70
61742;BME280;47650;49.848;9.620;2022-11-20T04:18:29;99083.44;;;3.43;85.65
61742;BME280;47650;49.848;9.620;2022-11-20T04:20:56;99082.38;;;3.22;84.33
61742;BME280;47650;49.848;9.620;2022-11-20T04:23:22;99081.03;;;2.55;83.51
61742;BME280;47650;49.848;9.620;2022-11-20T04:25:48;99117.75;;;2.66;84.46
61742;BME280;47650;49.848;9.620;2022-11-20T04:28:13;99107.47;;;2.76;84.46
61742;BME280;47650;49.848;9.620;2022-11-20T04:30:38;99058.59;;;2.63;85.48
61742;BME280;47650;49.848;9.620;2022-11-20T04:33:04;99109.44;;;3.22;85.80
61742;BME280;47650;49.848;9.620;2022-11-20T04:35:29;99091.94;;;3.23;85.52
61742;BME280;47650;49.848;9.620;2022-11-20T04:37:55;99109.28;;;3.48;85.70
61742;BME280;47650;49.848;9.620;2022-11-20T04:40:21;99112.25;;;2.95;83.26
61742;BME280;47650;49.848;9.620;2022-11-20T04:42:46;99112.84;;;2.61;83.33
61742;BME280;47650;49.848;9.620;2022-11-20T04:45:12;99113.00;;;2.84;84.76
61742;BME280;47650;49.848;9.620;2022-11-20T04:47:38;99100.88;;;3.07;85.18
61742;BME280;47650;49.848;9.620;2022-11-20T04:50:03;99113.91;;;3.33;85.93
61742;BME280;47650;49.848;9.620;2022-11-20T04:54:58;99100.38;;;3.50;85.73
61742;BME280;47650;49.848;9.620;2022-11-20T04:57:23;99097.47;;;3.66;85.33
61742;BME280;47650;49.848;9.620;2022-11-20T04:59:48;99059.66;;;3.57;85.57
61742;BME280;47650;49.848;9.620;2022-11-20T05:02:14;99079.53;;;3.84;85.48
61742;BME280;47650;49.848;9.620;2022-11-20T05:04:40;99047.22;;;3.72;85.46
61742;BME280;47650;49.848;9.620;2022-11-20T05:07:05;99055.56;;;3.78;84.86
61742;BME280;47650;49.848;9.620;2022-11-20T05:09:31;99087.44;;;4.07;85.22
61742;BME280;47650;49.848;9.620;2022-11-20T05:11:56;99019.31;;;3.71;85.50
61742;BME280;47650;49.848;9.620;2022-11-20T05:14:21;99047.09;;;3.85;85.02
61742;BME280;47650;49.848;9.620;2022-11-20T05:16:47;99048.31;;;3.92;84.79
61742;BME280;47650;49.848;9.620;2022-11-20T05:19:12;99085.78;;;4.06;83.98
61742;BME280;47650;49.848;9.620;2022-11-20T05:21:43;99100.31;;;4.10;83.79
61742;BME280;47650;49.848;9.620;2022-11-20T05:24:09;99101.06;;;4.12;84.09
61742;BME280;47650;49.848;9.620;2022-11-20T05:26:34;99092.44;;;4.10;83.96
61742;BME280;47650;49.848;9.620;2022-11-20T05:29:06;99052.84;;;3.90;84.25
61742;BME280;47650;49.848;9.620;2022-11-20T05:31:31;99086.03;;;4.14;84.03
61742;BME280;47650;49.848;9.620;2022-11-20T05:33:57;99081.59;;;4.14;84.65
61742;BME280;47650;49.848;9.620;2022-11-20T05:36:23;99081.72;;;4.02;83.81
61742;BME280;47650;49.848;9.620;2022-11-20T05:38:49;99043.53;;;3.86;83.63
61742;BME280;47650;49.848;9.620;2022-11-20T05:41:16;99071.72;;;4.07;84.19
61742;BME280;47650;49.848;9.620;2022-11-20T05:43:44;99086.75;;;4.16;84.16
61742;BME280;47650;49.848;9.620;2022-11-20T05:46:12;99083.63;;;4.11;84.50
61742;BME280;47650;49.848;9.620;2022-11-20T05:48:40;99086.25;;;4.11;83.33
61742;BME280;47650;49.848;9.620;2022-11-20T05:51:09;99071.72;;;4.07;84.09
61742;BME280;47650;49.848;9.620;2022-11-20T05:53:36;99071.72;;;4.07;83.63
61742;BME280;47650;49.848;9.620;2022-11-20T05:56:07;99059.16;;;3.99;83.86
61742;BME280;47650;49.848;9.620;2022-11-20T05:58:33;99037.09;;;3.79;83.95
61742;BME280;47650;49.848;9.620;2022-11-20T06:01:20;99084.56;;;4.10;84.04
61742;BME280;47650;49.848;9.620;2022-11-20T06:03:47;99072.00;;;3.80;83.28
61742;BME280;47650;49.848;9.620;2022-11-20T06:06:14;99094.25;;;3.63;82.63
61742;BME280;47650;49.848;9.620;2022-11-20T06:08:42;99036.84;;;2.63;82.12
61742;BME280;47650;49.848;9.620;2022-11-20T06:11:14;99092.34;;;3.41;83.50
61742;BME280;47650;49.848;9.620;2022-11-20T06:13:41;99104.38;;;2.95;82.98
61742;BME280;47650;49.848;9.620;2022-11-20T06:16:15;99101.03;;;2.93;82.91
61742;BME280;47650;49.848;9.620;2022-11-20T06:18:42;99103.00;;;3.26;83.95
61742;BME280;47650;49.848;9.620;2022-11-20T06:21:10;99100.59;;;3.47;84.87
61742;BME280;47650;49.848;9.620;2022-11-20T06:23:35;99099.25;;;3.66;85.03
61742;BME280;47650;49.848;9.620;2022-11-20T06:26:06;99079.63;;;3.36;83.49
61742;BME280;47650;49.848;9.620;2022-11-20T06:28:32;99074.41;;;2.99;82.25
61742;BME280;47650;49.848;9.620;2022-11-20T06:30:58;99064.00;;;3.34;83.85
61742;BME280;47650;49.848;9.620;2022-11-20T06:33:29;99087.69;;;3.68;84.51
61742;BME280;47650;49.848;9.620;2022-11-20T06:35:59;99077.38;;;3.78;85.29
61742;BME280;47650;49.848;9.620;2022-11-20T06:38:25;99084.03;;;3.82;84.72
61742;BME280;47650;49.848;9.620;2022-11-20T06:40:53;99075.53;;;3.32;82.77
61742;BME280;47650;49.848;9.620;2022-11-20T06:43:20;99087.00;;;3.42;83.47
61742;BME280;47650;49.848;9.620;2022-11-20T06:45:58;99093.19;;;3.65;84.17
61742;BME280;47650;49.848;9.620;2022-11-20T06:48:24;99096.81;;;3.75;84.61
61742;BME280;47650;49.848;9.620;2022-11-20T06:50:56;99093.16;;;3.89;84.68
61742;BME280;47650;49.848;9.620;2022-11-20T06:53:22;99089.81;;;3.99;84.88
61742;BME280;47650;49.848;9.620;2022-11-20T06:55:49;99081.56;;;3.92;84.07
61742;BME280;47650;49.848;9.620;2022-11-20T06:58:15;99095.50;;;3.92;83.42
61742;BME280;47650;49.848;9.620;2022-11-20T07:00:41;99081.59;;;4.03;83.90
61742;BME280;47650;49.848;9.620;2022-11-20T07:03:13;99056.44;;;3.89;83.72
61742;BME280;47650;49.848;9.620;2022-11-20T07:05:40;99079.69;;;4.05;84.18
61742;BME280;47650;49.848;9.620;2022-11-20T07:08:06;99094.63;;;4.16;83.68
61742;BME280;47650;49.848;9.620;2022-11-20T07:10:32;99031.25;;;3.75;83.95
61742;BME280;47650;49.848;9.620;2022-11-20T07:12:57;99088.88;;;4.11;83.22
61742;BME280;47650;49.848;9.620;2022-11-20T07:15:25;99075.72;;;4.00;83.09
61742;BME280;47650;49.848;9.620;2022-11-20T07:17:55;99085.81;;;3.70;81.73
61742;BME280;47650;49.848;9.620;2022-11-20T07:20:23;99101.28;;;4.09;83.38
61742;BME280;47650;49.848;9.620;2022-11-20T07:22:53;99068.94;;;3.97;83.98
61742;BME280;47650;49.848;9.620;2022-11-20T07:25:24;99103.28;;;3.58;81.59
61742;BME280;47650;49.848;9.620;2022-11-20T07:27:50;99107.16;;;3.77;82.93
61742;BME280;47650;49.848;9.620;2022-11-20T07:30:16;99105.50;;;3.87;83.48
61742;BME280;47650;49.848;9.620;2022-11-20T07:32:41;99096.59;;;3.90;84.13
61742;BME280;47650;49.848;9.620;2022-11-20T07:35:07;99072.84;;;3.80;83.54
61742;BME280;47650;49.848;9.620;2022-11-20T07:37:36;99071.41;;;3.87;84.15
61742;BME280;47650;49.848;9.620;2022-11-20T07:40:02;99083.84;;;3.97;84.56
61742;BME280;47650;49.848;9.620;2022-11-20T07:42:27;99078.84;;;4.05;84.76
61742;BME280;47650;49.848;9.620;2022-11-20T07:45:04;99073.38;;;4.08;84.41
61742;BME280;47650;49.848;9.620;2022-11-20T07:47:35;99092.44;;;4.10;83.37
61742;BME280;47650;49.848;9.620;2022-11-20T07:50:03;99090.56;;;4.12;84.02
61742;BME280;47650;49.848;9.620;2022-11-20T07:52:28;99076.22;;;3.93;84.28
61742;BME280;47650;49.848;9.620;2022-11-20T07:54:54;99047.44;;;3.81;84.79
61742;BME280;47650;49.848;9.620;2022-11-20T07:57:20;99102.47;;;4.16;84.72
61742;BME280;47650;49.848;9.620;2022-11-20T07:59:56;99053.66;;;3.91;85.07
61742;BME280;47650;49.848;9.620;2022-11-20T08:02:23;99109.19;;;4.31;85.09
61742;BME280;47650;49.848;9.620;2022-11-20T08:04:50;99094.38;;;4.19;85.02
61742;BME280;47650;49.848;9.620;2022-11-20T08:07:19;99110.13;;;4.30;84.49
61742;BME280;47650;49.848;9.620;2022-11-20T08:09:44;99105.97;;;4.28;84.28
61742;BME280;47650;49.848;9.620;2022-11-20T08:12:20;99104.28;;;4.16;83.75
61742;BME280;47650;49.848;9.620;2022-11-20T08:15:05;99096.28;;;4.28;84.31
61742;BME280;47650;49.848;9.620;2022-11-20T08:17:32;99087.00;;;4.36;84.40
61742;BME280;47650;49.848;9.620;2022-11-20T08:19:58;99093.19;;;4.46;84.59
61742;BME280;47650;49.848;9.620;2022-11-20T08:22:24;99098.81;;;4.64;82.82
61742;BME280;47650;49.848;9.620;2022-11-20T08:24:55;99053.56;;;4.38;83.46
61742;BME280;47650;49.848;9.620;2022-11-20T08:27:22;99096.28;;;4.85;82.72
61742;BME280;47650;49.848;9.620;2022-11-20T08:29:47;99073.31;;;4.98;82.38
61742;BME280;47650;49.848;9.620;2022-11-20T08:32:12;99090.72;;;5.22;83.19
61742;BME280;47650;49.848;9.620;2022-11-20T08:34:40;99101.97;;;5.45;83.24
61742;BME280;47650;49.848;9.620;2022-11-20T08:37:05;99012.06;;;5.09;83.44
61742;BME280;47650;49.848;9.620;2022-11-20T08:39:31;99094.59;;;5.71;82.76
61742;BME280;47650;49.848;9.620;2022-11-20T08:41:56;99092.47;;;5.65;83.04
61742;BME280;47650;49.848;9.620;2022-11-20T08:44:28;99094.16;;;5.66;82.48
61742;BME280;47650;49.848;9.620;2022-11-20T08:46:58;99094.72;;;5.91;81.75
61742;BME280;47650;49.848;9.620;2022-11-20T08:49:27;99089.50;;;6.12;81.66
61742;BME280;47650;49.848;9.620;2022-11-20T08:51:52;99054.31;;;6.13;80.77
61742;BME280;47650;49.848;9.620;2022-11-20T08:54:20;99078.34;;;6.19;81.75
61742;BME280;47650;49.848;9.620;2022-11-20T08:56:53;99092.47;;;5.97;79.30
61742;BME280;47650;49.848;9.620;2022-11-20T08:59:25;99091.91;;;5.82;80.74
61742;BME280;47650;49.848;9.620;2022-11-20T09:01:53;99112.66;;;5.43;82.09
61742;BME280;47650;49.848;9.620;2022-11-20T09:04:19;99103.31;;;5.39;82.07
61742;BME280;47650;49.848;9.620;2022-11-20T09:06:45;99116.91;;;4.22;78.95
61742;BME280;47650;49.848;9.620;2022-11-20T09:09:12;99114.91;;;4.37;79.48
61742;BME280;47650;49.848;9.620;2022-11-20T09:11:37;99113.00;;;4.61;81.36
61742;BME280;47650;49.848;9.620;2022-11-20T09:14:03;99091.28;;;4.93;82.12
61742;BME280;47650;49.848;9.620;2022-11-20T09:16:32;99029.38;;;4.23;81.35
61742;BME280;47650;49.848;9.620;2022-11-20T09:18:57;99122.41;;;4.30;81.23
61742;BME280;47650;49.848;9.620;2022-11-20T09:21:22;99092.13;;;4.48;82.25
61742;BME280;47650;49.848;9.620;2022-11-20T09:23:49;99129.50;;;3.94;81.91
61742;BME280;47650;49.848;9.620;2022-11-20T09:26:15;99101.28;;;4.09;83.53
61742;BME280;47650;49.848;9.620;2022-11-20T09:28:54;99126.97;;;4.62;83.79
61742;BME280;47650;49.848;9.620;2022-11-20T09:31:24;99122.75;;;5.04;83.67
61742;BME280;47650;49.848;9.620;2022-11-20T09:33:57;99115.53;;;5.40;83.89
61742;BME280;47650;49.848;9.620;2022-11-20T09:36:23;99109.06;;;5.65;83.26
61742;BME280;47650;49.848;9.620;2022-11-20T09:38:49;99110.28;;;5.29;80.46
61742;BME280;47650;49.848;9.620;2022-11-20T09:41:40;99115.00;;;5.79;82.33
61742;BME280;47650;49.848;9.620;2022-11-20T09:49:57;99119.59;;;5.33;82.61
61742;BME280;47650;49.848;9.620;2022-11-20T09:55:20;99110.66;;;6.10;79.17
61742;BME280;47650;49.848;9.620;2022-11-20T09:57:48;99073.59;;;6.44;79.03
61742;BME280;47650;49.848;9.620;2022-11-20T10:00:16;99094.34;;;6.78;78.68
61742;BME280;47650;49.848;9.620;2022-11-20T10:03:01;99100.47;;;7.58;76.70
61742;BME280;47650;49.848;9.620;2022-11-20T10:10:56;99076.50;;;10.88;63.59
61742;BME280;47650;49.848;9.620;2022-11-20T10:13:39;99066.34;;;13.66;60.58
61742;BME280;47650;49.848;9.620;2022-11-20T10:16:32;99065.94;;;13.92;56.20
61742;BME280;47650;49.848;9.620;2022-11-20T10:19:07;99046.63;;;16.59;52.11
61742;BME280;47650;49.848;9.620;2022-11-20T10:22:15;99040.84;;;16.84;54.17
61742;BME280;47650;49.848;9.620;2022-11-20T10:24:56;99042.56;;;15.14;55.11
61742;BME280;47650;49.848;9.620;2022-11-20T10:30:11;99050.84;;;15.19;54.58
61742;BME280;47650;49.848;9.620;2022-11-20T10:32:41;99056.34;;;12.43;56.56
61742;BME280;47650;49.848;9.620;2022-11-20T10:37:59;99068.94;;;9.26;61.39
61742;BME280;47650;49.848;9.620;2022-11-20T10:40:38;99064.06;;;9.21;65.30
61742;BME280;47650;49.848;9.620;2022-11-20T10:43:17;99064.66;;;10.31;68.73
61742;BME280;47650;49.848;9.620;2022-11-20T10:45:49;99064.06;;;9.21;66.00
61742;BME280;47650;49.848;9.620;2022-11-20T10:48:27;99056.53;;;9.27;68.85
61742;BME280;47650;49.848;9.620;2022-11-20T10:51:10;99060.91;;;8.44;69.51
61742;BME280;47650;49.848;9.620;2022-11-20T10:56:39;99057.41;;;7.09;74.33
61742;BME280;47650;49.848;9.620;2022-11-20T10:59:35;99044.38;;;7.46;76.76
61742;BME280;47650;49.848;9.620;2022-11-20T11:02:24;99060.19;;;7.17;77.88
61742;BME280;47650;49.848;9.620;2022-11-20T11:04:53;99023.44;;;5.94;76.25
61742;BME280;47650;49.848;9.620;2022-11-20T11:07:25;99060.88;;;6.49;79.41
61742;BME280;47650;49.848;9.620;2022-11-20T11:09:55;99060.34;;;6.25;79.50
61742;BME280;47650;49.848;9.620;2022-11-20T11:12:26;99064.25;;;6.30;79.34
61742;BME280;47650;49.848;9.620;2022-11-20T11:14:55;99067.00;;;6.59;79.63
61742;BME280;47650;49.848;9.620;2022-11-20T11:17:32;99060.16;;;6.97;80.82
61742;BME280;47650;49.848;9.620;2022-11-20T11:20:15;99061.91;;;6.37;78.44
61742;BME280;47650;49.848;9.620;2022-11-20T11:22:47;99026.50;;;5.78;78.97
61742;BME280;47650;49.848;9.620;2022-11-20T11:27:48;99035.56;;;5.64;79.58
61742;BME280;47650;49.848;9.620;2022-11-20T11:30:17;99052.22;;;5.32;81.52
61742;BME280;47650;49.848;9.620;2022-11-20T11:32:43;99031.72;;;5.68;81.78
61742;BME280;47650;49.848;9.620;2022-11-20T11:35:31;99048.97;;;5.61;82.08
61742;BME280;47650;49.848;9.620;2022-11-20T11:38:11;99035.41;;;5.23;83.69
61742;BME280;47650;49.848;9.620;2022-11-20T11:40:39;99028.75;;;5.19;82.50
61742;BME280;47650;49.848;9.620;2022-11-20T11:43:17;99051.16;;;5.77;81.43
61742;BME280;47650;49.848;9.620;2022-11-20T11:54:28;99030.34;;;6.47;82.76
61742;BME280;47650;49.848;9.620;2022-11-20T11:57:01;99041.03;;;5.72;81.60
61742;BME280;47650;49.848;9.620;2022-11-20T11:59:45;99035.94;;;5.38;81.64
61742;BME280;47650;49.848;9.620;2022-11-20T12:04:57;99031.72;;;6.41;83.29
61742;BME280;47650;49.848;9.620;2022-11-20T12:10:34;99007.06;;;6.11;82.18
61742;BME280;47650;49.848;9.620;2022-11-20T12:13:20;99010.75;;;5.99;82.12
61742;BME280;47650;49.848;9.620;2022-11-20T12:15:49;99025.44;;;5.80;83.11
61742;BME280;47650;49.848;9.620;2022-11-20T12:18:17;99014.66;;;6.05;83.32
61742;BME280;47650;49.848;9.620;2022-11-20T12:26:58;98978.41;;;5.24;82.54
61742;BME280;47650;49.848;9.620;2022-11-20T12:44:16;99008.31;;;5.65;82.96
61742;BME280;47650;49.848;9.620;2022-11-20T12:52:58;99027.94;;;5.40;84.77
61742;BME280;47650;49.848;9.620;2022-11-20T12:55:36;99026.97;;;5.41;85.04
61742;BME280;47650;49.848;9.620;2022-11-20T12:58:24;99016.44;;;5.08;83.58
61742;BME280;47650;49.848;9.620;2022-11-20T13:01:06;98989.78;;;5.24;85.55
61742;BME280;47650;49.848;9.620;2022-11-20T13:03:42;99004.63;;;5.98;85.71
61742;BME280;47650;49.848;9.620;2022-11-20T13:06:17;99005.31;;;6.21;85.30
61742;BME280;47650;49.848;9.620;2022-11-20T13:08:53;99010.66;;;6.41;85.16
61742;BME280;47650;49.848;9.620;2022-11-20T13:11:37;99007.78;;;6.13;84.77
61742;BME280;47650;49.848;9.620;2022-11-20T13:14:34;98996.25;;;6.45;84.93
61742;BME280;47650;49.848;9.620;2022-11-20T13:19:22;98998.78;;;5.95;83.97
61742;BME280;47650;49.848;9.620;2022-11-20T13:21:49;98991.88;;;6.65;84.27
61742;BME280;47650;49.848;9.620;2022-11-20T13:24:24;98979.56;;;7.24;84.11
61742;BME280;47650;49.848;9.620;2022-11-20T13:27:01;98984.81;;;7.53;82.42
61742;BME280;47650;49.848;9.620;2022-11-20T13:29:28;98983.00;;;7.54;80.99
61742;BME280;47650;49.848;9.620;2022-11-20T13:32:12;98986.47;;;7.64;82.26
61742;BME280;47650;49.848;9.620;2022-11-20T13:34:39;98987.50;;;7.05;80.11
61742;BME280;47650;49.848;9.620;2022-11-20T13:37:26;98985.38;;;6.29;81.50
61742;BME280;47650;49.848;9.620;2022-11-20T13:39:52;98975.13;;;6.26;82.45
61742;BME280;47650;49.848;9.620;2022-11-20T13:44:51;98986.22;;;6.29;83.81
61742;BME280;47650;49.848;9.620;2022-11-20T13:47:26;98980.34;;;6.56;83.69
61742;BME280;47650;49.848;9.620;2022-11-20T13:49:52;98976.75;;;6.67;83.87
61742;BME280;47650;49.848;9.620;2022-11-20T13:55:23;98966.94;;;6.99;83.91
61742;BME280;47650;49.848;9.620;2022-11-20T14:00:29;98964.72;;;7.33;84.83
61742;BME280;47650;49.848;9.620;2022-11-20T14:03:08;98973.59;;;7.12;84.23
61742;BME280;47650;49.848;9.620;2022-11-20T14:05:39;98978.28;;;6.80;84.27
61742;BME280;47650;49.848;9.620;2022-11-20T14:08:25;98985.22;;;6.61;84.74
61742;BME280;47650;49.848;9.620;2022-11-20T14:11:05;98964.38;;;6.38;85.43
61742;BME280;47650;49.848;9.620;2022-11-20T14:13:31;98917.00;;;5.98;85.99
61742;BME280;47650;49.848;9.620;2022-11-20T14:15:57;98942.03;;;6.33;86.14
61742;BME280;47650;49.848;9.620;2022-11-20T14:18:26;98956.94;;;6.63;86.56
61742;BME280;47650;49.848;9.620;2022-11-20T14:20:52;98967.63;;;6.81;86.40
61742;BME280;47650;49.848;9.620;2022-11-20T14:23:27;98934.22;;;6.91;86.80
61742;BME280;47650;49.848;9.620;2022-11-20T14:25:56;98950.00;;;7.21;86.57
61742;BME280;47650;49.848;9.620;2022-11-20T14:28:30;98946.38;;;7.41;86.15
61742;BME280;47650;49.848;9.620;2022-11-20T14:30:56;98910.16;;;7.43;85.87
61742;BME280;47650;49.848;9.620;2022-11-20T14:33:23;98922.72;;;7.69;85.85
61742;BME280;47650;49.848;9.620;2022-11-20T14:35:55;98932.94;;;7.82;85.77
61742;BME280;47650;49.848;9.620;2022-11-20T14:38:31;98936.78;;;7.97;85.61
61742;BME280;47650;49.848;9.620;2022-11-20T14:41:20;98941.63;;;8.02;84.78
61742;BME280;47650;49.848;9.620;2022-11-20T14:43:50;98912.63;;;7.92;84.97
61742;BME280;47650;49.848;9.620;2022-11-20T14:46:17;98927.00;;;8.07;84.64
61742;BME280;47650;49.848;9.620;2022-11-20T14:48:46;98930.13;;;7.93;83.94
61742;BME280;47650;49.848;9.620;2022-11-20T14:51:35;98923.84;;;7.94;84.26